createdAt,value
2024-03-25T00:01:09.488Z,9.70
2024-03-25T00:03:20.461Z,7.30
2024-03-25T00:05:28.420Z,6.90
2024-03-25T00:07:35.820Z,8.80
2024-03-25T00:09:43.227Z,8.90
2024-03-25T00:11:55.126Z,9.50
2024-03-25T00:16:09.943Z,9.00
2024-03-25T00:18:17.276Z,8.60
2024-03-25T00:20:25.193Z,9.60
2024-03-25T00:22:32.724Z,7.00
2024-03-25T00:24:40.180Z,7.80
2024-03-25T00:26:48.569Z,9.90
2024-03-25T00:28:55.911Z,9.20
2024-03-25T00:31:03.873Z,8.40
2024-03-25T00:33:12.314Z,9.00
2024-03-25T00:35:19.995Z,9.50
2024-03-25T00:37:27.646Z,8.30
2024-03-25T00:39:36.189Z,8.00
2024-03-25T00:41:44.135Z,10.00
2024-03-25T00:43:51.635Z,8.10
2024-03-25T00:45:59.132Z,8.60
2024-03-25T00:48:08.250Z,8.50
2024-03-25T00:50:16.059Z,10.20
2024-03-25T00:52:23.665Z,9.20
2024-03-25T00:54:31.265Z,11.20
2024-03-25T00:56:38.742Z,11.50
2024-03-25T00:58:47.405Z,11.60
2024-03-25T01:00:55.018Z,14.10
2024-03-25T01:03:03.243Z,11.00
2024-03-25T01:05:12.291Z,11.10
2024-03-25T01:07:19.843Z,10.70
2024-03-25T01:09:27.614Z,10.50
2024-03-25T01:11:35.222Z,10.40
2024-03-25T01:13:43.658Z,12.80
2024-03-25T01:15:51.007Z,11.60
2024-03-25T01:17:58.679Z,14.10
2024-03-25T01:20:07.586Z,14.00
2024-03-25T01:22:15.204Z,9.60
2024-03-25T01:24:22.747Z,11.40
2024-03-25T01:26:30.469Z,9.10
2024-03-25T01:28:38.035Z,10.90
2024-03-25T01:30:45.710Z,11.00
2024-03-25T01:32:53.567Z,11.90
2024-03-25T01:35:01.167Z,10.80
2024-03-25T01:37:09.038Z,10.90
2024-03-25T01:39:16.591Z,9.70
2024-03-25T01:41:25.737Z,9.60
2024-03-25T01:43:33.154Z,11.10
2024-03-25T01:45:40.882Z,9.90
2024-03-25T01:47:48.740Z,9.40
2024-03-25T01:49:57.639Z,8.20
2024-03-25T01:52:07.046Z,9.50
2024-03-25T01:54:17.306Z,11.60
2024-03-25T01:56:26.673Z,11.10
2024-03-25T01:58:34.227Z,10.90
2024-03-25T02:00:41.998Z,8.90
2024-03-25T02:02:49.733Z,9.00
2024-03-25T02:04:57.589Z,7.30
2024-03-25T02:07:06.629Z,7.60
2024-03-25T02:09:16.434Z,8.30
2024-03-25T02:11:24.697Z,12.40
2024-03-25T02:13:32.936Z,9.00
2024-03-25T02:15:40.520Z,7.20
2024-03-25T02:17:47.886Z,8.50
2024-03-25T02:19:55.746Z,9.90
2024-03-25T02:22:03.200Z,9.80
2024-03-25T02:24:13.771Z,11.00
2024-03-25T02:26:21.391Z,9.20
2024-03-25T02:28:28.798Z,9.90
2024-03-25T02:30:37.752Z,9.20
2024-03-25T02:32:45.381Z,9.00
2024-03-25T02:34:55.057Z,9.30
2024-03-25T02:37:02.557Z,10.30
2024-03-25T02:39:11.043Z,10.70
2024-03-25T02:41:18.696Z,9.20
2024-03-25T02:43:28.019Z,10.20
2024-03-25T02:45:35.563Z,10.90
2024-03-25T02:47:43.001Z,8.90
2024-03-25T02:49:50.544Z,10.30
2024-03-25T02:51:58.017Z,9.80
2024-03-25T02:54:05.572Z,11.40
2024-03-25T02:56:12.954Z,11.20
2024-03-25T02:58:20.543Z,9.00
2024-03-25T03:00:28.098Z,10.70
2024-03-25T03:02:35.619Z,10.20
2024-03-25T03:04:43.025Z,9.80
2024-03-25T03:06:50.416Z,9.50
2024-03-25T03:08:57.990Z,9.50
2024-03-25T03:11:06.000Z,9.80
2024-03-25T03:13:13.296Z,10.00
2024-03-25T03:15:20.862Z,11.20
2024-03-25T03:17:28.439Z,15.00
2024-03-25T03:19:36.115Z,14.60
2024-03-25T03:21:43.844Z,13.20
2024-03-25T03:23:51.248Z,11.30
2024-03-25T03:26:00.606Z,11.10
2024-03-25T03:28:08.832Z,11.70
2024-03-25T03:30:16.913Z,13.10
2024-03-25T03:32:24.386Z,10.70
2024-03-25T03:34:32.151Z,11.70
2024-03-25T03:36:39.669Z,13.10
2024-03-25T03:38:47.895Z,11.80
2024-03-25T03:41:01.107Z,11.80
2024-03-25T03:43:08.571Z,10.70
2024-03-25T03:45:16.242Z,10.30
2024-03-25T03:47:23.799Z,14.20
2024-03-25T03:49:31.364Z,11.70
2024-03-25T03:51:38.976Z,9.80
2024-03-25T03:53:46.481Z,10.10
2024-03-25T03:56:02.760Z,12.90
2024-03-25T03:58:10.264Z,11.30
2024-03-25T04:00:19.072Z,16.30
2024-03-25T04:02:26.664Z,11.90
2024-03-25T04:04:34.255Z,11.70
2024-03-25T04:06:42.094Z,11.90
2024-03-25T04:08:49.839Z,12.20
2024-03-25T04:10:57.304Z,12.20
2024-03-25T04:13:05.331Z,11.70
2024-03-25T04:15:18.826Z,10.80
2024-03-25T04:17:26.207Z,11.40
2024-03-25T04:19:33.678Z,11.30
2024-03-25T04:21:41.572Z,12.60
2024-03-25T04:23:50.232Z,14.20
2024-03-25T04:25:57.890Z,13.60
2024-03-25T04:28:06.977Z,13.70
2024-03-25T04:30:15.472Z,13.40
2024-03-25T04:32:23.096Z,16.00
2024-03-25T04:34:30.712Z,15.20
2024-03-25T04:36:38.190Z,14.90
2024-03-25T04:38:45.776Z,17.40
2024-03-25T04:40:53.395Z,16.60
2024-03-25T04:43:00.943Z,16.10
2024-03-25T04:45:10.254Z,16.20
2024-03-25T04:47:17.785Z,17.00
2024-03-25T04:49:25.428Z,16.00
2024-03-25T04:51:33.539Z,14.80
2024-03-25T04:53:41.034Z,17.40
2024-03-25T04:55:48.690Z,16.80
2024-03-25T04:57:56.152Z,20.70
2024-03-25T05:00:05.291Z,17.40
2024-03-25T05:02:12.909Z,16.80
2024-03-25T05:04:21.455Z,17.70
2024-03-25T05:06:28.877Z,17.60
2024-03-25T05:08:36.375Z,19.30
2024-03-25T05:10:43.955Z,16.60
2024-03-25T05:12:51.599Z,15.50
2024-03-25T05:14:59.091Z,17.60
2024-03-25T05:17:09.260Z,16.30
2024-03-25T05:19:17.278Z,16.50
2024-03-25T05:21:24.972Z,19.00
2024-03-25T05:23:32.346Z,19.70
2024-03-25T05:25:41.216Z,22.50
2024-03-25T05:27:48.857Z,19.60
2024-03-25T05:29:56.284Z,19.80
2024-03-25T05:32:05.102Z,18.10
2024-03-25T05:34:14.414Z,18.50
2024-03-25T05:36:22.060Z,15.60
2024-03-25T05:38:29.832Z,17.30
2024-03-25T05:40:37.228Z,17.00
2024-03-25T05:42:48.123Z,18.00
2024-03-25T05:44:55.948Z,18.70
2024-03-25T05:47:04.113Z,20.50
2024-03-25T05:49:11.511Z,16.20
2024-03-25T05:51:20.874Z,19.00
2024-03-25T05:53:28.945Z,16.90
2024-03-25T05:55:36.381Z,21.50
2024-03-25T05:57:43.777Z,18.40
2024-03-25T05:59:51.231Z,20.80
2024-03-25T06:01:58.632Z,15.70
2024-03-25T06:04:06.408Z,16.20
2024-03-25T06:06:13.980Z,17.80
2024-03-25T06:08:25.532Z,16.70
2024-03-25T06:10:36.654Z,16.20
2024-03-25T06:12:44.219Z,17.90
2024-03-25T06:14:51.780Z,17.10
2024-03-25T06:16:59.215Z,18.70
2024-03-25T06:19:06.810Z,18.70
2024-03-25T06:21:14.503Z,18.90
2024-03-25T06:23:30.749Z,20.20
2024-03-25T06:25:39.422Z,17.70
2024-03-25T06:27:47.413Z,19.10
2024-03-25T06:30:15.104Z,18.60
2024-03-25T06:32:40.552Z,19.20
2024-03-25T06:34:49.536Z,18.70
2024-03-25T06:36:56.999Z,22.70
2024-03-25T06:39:04.953Z,22.90
2024-03-25T06:41:12.829Z,20.40
2024-03-25T06:43:20.641Z,13.80
2024-03-25T06:45:28.263Z,24.00
2024-03-25T06:47:35.604Z,20.70
2024-03-25T06:49:43.523Z,17.10
2024-03-25T06:51:51.017Z,16.90
2024-03-25T06:53:58.794Z,15.70
2024-03-25T06:56:07.212Z,16.10
2024-03-25T06:58:14.822Z,20.80
2024-03-25T07:00:23.356Z,18.10
2024-03-25T07:02:31.367Z,23.40
2024-03-25T07:04:39.040Z,19.50
2024-03-25T07:06:46.435Z,23.30
2024-03-25T07:08:54.874Z,18.90
2024-03-25T07:11:03.448Z,20.00
2024-03-25T07:13:12.075Z,20.50
2024-03-25T07:15:19.806Z,22.40
2024-03-25T07:17:27.756Z,19.30
2024-03-25T07:19:35.244Z,21.90
2024-03-25T07:21:44.553Z,16.80
2024-03-25T07:23:52.179Z,16.00
2024-03-25T07:25:59.667Z,16.90
2024-03-25T07:28:08.985Z,18.20
2024-03-25T07:30:17.353Z,15.80
2024-03-25T07:32:25.202Z,19.80
2024-03-25T07:34:33.087Z,21.80
2024-03-25T07:36:40.573Z,15.50
2024-03-25T07:38:48.115Z,16.40
2024-03-25T07:40:55.575Z,19.60
2024-03-25T07:43:04.044Z,17.70
2024-03-25T07:45:15.048Z,18.50
2024-03-25T07:47:23.080Z,19.40
2024-03-25T07:49:30.629Z,14.80
2024-03-25T07:51:40.605Z,13.50
2024-03-25T07:53:48.078Z,13.80
2024-03-25T07:55:55.730Z,12.60
2024-03-25T07:58:03.032Z,14.80
2024-03-25T08:00:12.161Z,13.90
2024-03-25T08:02:22.350Z,14.10
2024-03-25T08:04:30.423Z,16.50
2024-03-25T08:06:37.907Z,15.70
2024-03-25T08:08:45.272Z,13.30
2024-03-25T08:10:53.770Z,15.60
2024-03-25T08:13:01.315Z,15.90
2024-03-25T08:15:10.620Z,16.00
2024-03-25T08:17:18.145Z,15.80
2024-03-25T08:19:26.610Z,12.50
2024-03-25T08:21:34.112Z,16.10
2024-03-25T08:23:42.423Z,12.70
2024-03-25T08:25:50.279Z,15.00
2024-03-25T08:27:57.771Z,15.40
2024-03-25T08:30:06.859Z,15.00
2024-03-25T08:32:14.577Z,17.20
2024-03-25T08:34:22.274Z,14.10
2024-03-25T08:36:29.705Z,12.20
2024-03-25T08:38:37.433Z,11.10
2024-03-25T08:40:45.098Z,10.90
2024-03-25T08:42:52.787Z,12.90
2024-03-25T08:45:00.935Z,11.90
2024-03-25T08:47:10.110Z,10.60
2024-03-25T08:49:17.546Z,13.30
2024-03-25T08:51:24.984Z,12.40
2024-03-25T08:53:32.365Z,13.10
2024-03-25T08:55:40.003Z,13.00
2024-03-25T08:57:47.570Z,10.80
2024-03-25T08:59:55.094Z,14.60
2024-03-25T09:02:02.980Z,11.00
2024-03-25T09:04:13.661Z,13.40
2024-03-25T09:06:25.534Z,12.40
2024-03-25T09:08:53.242Z,11.80
2024-03-25T09:11:08.330Z,11.40
2024-03-25T09:13:15.780Z,11.20
2024-03-25T09:15:23.281Z,9.60
2024-03-25T09:17:30.551Z,10.60
2024-03-25T09:19:38.126Z,10.30
2024-03-25T09:21:45.629Z,9.70
2024-03-25T09:23:53.015Z,9.70
2024-03-25T09:26:00.398Z,10.30
2024-03-25T09:28:09.155Z,12.60
2024-03-25T09:30:18.793Z,11.60
2024-03-25T09:32:27.109Z,10.40
2024-03-25T09:34:34.834Z,10.20
2024-03-25T09:36:42.542Z,11.70
2024-03-25T09:38:51.961Z,10.70
2024-03-25T09:41:01.132Z,12.20
2024-03-25T09:43:14.969Z,10.30
2024-03-25T09:45:26.555Z,9.40
2024-03-25T09:47:34.151Z,10.50
2024-03-25T09:49:44.375Z,10.90
2024-03-25T09:51:53.441Z,8.90
2024-03-25T09:54:01.016Z,9.70
2024-03-25T09:56:09.581Z,11.90
2024-03-25T09:58:19.967Z,8.80
2024-03-25T10:00:28.387Z,9.30
2024-03-25T10:02:38.629Z,10.50
2024-03-25T10:04:50.021Z,10.20
2024-03-25T10:06:57.786Z,8.80
2024-03-25T10:09:08.382Z,10.00
2024-03-25T10:11:15.912Z,7.70
2024-03-25T10:13:23.419Z,7.50
2024-03-25T10:15:31.947Z,7.40
2024-03-25T10:17:39.319Z,8.90
2024-03-25T10:19:47.774Z,8.30
2024-03-25T10:22:05.473Z,7.80
2024-03-25T10:26:33.628Z,6.90
2024-03-25T10:28:41.073Z,8.00
2024-03-25T10:30:49.037Z,8.50
2024-03-25T10:33:04.349Z,7.30
2024-03-25T10:35:13.091Z,8.20
2024-03-25T10:37:23.362Z,7.90
2024-03-25T10:39:34.914Z,9.20
2024-03-25T10:41:44.555Z,8.00
2024-03-25T10:43:54.734Z,6.80
2024-03-25T10:46:02.784Z,6.90
2024-03-25T10:48:17.357Z,9.10
2024-03-25T10:50:30.512Z,6.50
2024-03-25T10:52:39.522Z,8.10
2024-03-25T10:54:48.786Z,9.10
2024-03-25T10:56:56.386Z,8.50
2024-03-25T10:59:04.369Z,9.40
2024-03-25T11:01:12.428Z,7.60
2024-03-25T11:03:22.576Z,8.40
2024-03-25T11:05:30.889Z,6.50
2024-03-25T11:07:39.948Z,6.20
2024-03-25T11:09:47.666Z,7.30
2024-03-25T11:11:56.177Z,7.70
2024-03-25T11:14:06.177Z,6.30
2024-03-25T11:16:14.687Z,6.30
2024-03-25T11:18:26.545Z,6.20
2024-03-25T11:22:51.611Z,5.70
2024-03-25T11:24:59.618Z,8.10
2024-03-25T11:27:09.757Z,9.00
2024-03-25T11:29:17.534Z,13.30
2024-03-25T11:31:27.214Z,9.40
2024-03-25T11:33:38.641Z,9.70
2024-03-25T11:35:46.458Z,7.90
2024-03-25T11:37:54.207Z,12.20
2024-03-25T11:40:08.135Z,8.40
2024-03-25T11:42:16.643Z,7.80
2024-03-25T11:44:26.827Z,7.40
2024-03-25T11:46:38.057Z,9.40
2024-03-25T11:48:46.088Z,9.70
2024-03-25T11:50:53.530Z,8.20
2024-03-25T11:53:01.059Z,8.20
2024-03-25T11:55:10.885Z,9.80
2024-03-25T11:57:18.823Z,8.10
2024-03-25T11:59:26.567Z,7.90
2024-03-25T12:01:34.452Z,10.40
2024-03-25T12:03:44.136Z,6.40
2024-03-25T12:05:52.846Z,5.90
2024-03-25T12:08:00.207Z,6.30
2024-03-25T12:10:27.026Z,7.30
2024-03-25T12:12:36.630Z,7.50
2024-03-25T12:14:44.118Z,8.40
2024-03-25T12:16:52.196Z,7.90
2024-03-25T12:18:59.724Z,6.90
2024-03-25T12:21:11.957Z,8.70
2024-03-25T12:23:19.792Z,6.20
2024-03-25T12:25:27.625Z,7.90
2024-03-25T12:27:35.514Z,9.30
2024-03-25T12:29:43.303Z,9.10
2024-03-25T12:31:58.477Z,9.30
2024-03-25T12:34:14.778Z,12.10
2024-03-25T12:36:27.724Z,8.00
2024-03-25T12:38:35.532Z,6.80
2024-03-25T12:40:43.082Z,7.10
2024-03-25T12:42:55.823Z,7.30
2024-03-25T12:45:04.252Z,6.60
2024-03-25T12:47:11.697Z,6.60
2024-03-25T12:49:19.542Z,6.50
2024-03-25T12:51:26.857Z,6.60
2024-03-25T12:53:34.929Z,6.30
2024-03-25T12:55:42.492Z,5.70
2024-03-25T12:57:49.914Z,4.50
2024-03-25T12:59:57.570Z,8.90
2024-03-25T13:02:05.077Z,5.50
2024-03-25T13:04:12.634Z,5.80
2024-03-25T13:06:20.055Z,5.60
2024-03-25T13:08:28.446Z,9.20
2024-03-25T13:10:37.971Z,5.10
2024-03-25T13:12:45.346Z,6.80
2024-03-25T13:14:52.833Z,6.00
2024-03-25T13:17:00.231Z,4.70
2024-03-25T13:19:08.297Z,5.80
2024-03-25T13:21:15.815Z,5.30
2024-03-25T13:23:23.498Z,6.10
2024-03-25T13:25:30.971Z,6.50
2024-03-25T13:27:39.100Z,6.80
2024-03-25T13:29:46.721Z,4.00
2024-03-25T13:31:59.153Z,4.20
2024-03-25T13:34:10.179Z,6.10
2024-03-25T13:36:17.634Z,5.00
2024-03-25T13:38:25.917Z,5.40
2024-03-25T13:40:35.721Z,4.80
2024-03-25T13:42:44.318Z,4.80
2024-03-25T13:44:51.958Z,6.60
2024-03-25T13:46:59.497Z,5.10
2024-03-25T13:49:07.093Z,5.40
2024-03-25T13:51:14.636Z,6.80
2024-03-25T13:53:22.458Z,4.30
2024-03-25T13:55:30.102Z,5.70
2024-03-25T13:57:37.711Z,8.10
2024-03-25T13:59:45.331Z,5.80
2024-03-25T14:01:54.979Z,6.70
2024-03-25T14:04:02.506Z,6.30
2024-03-25T14:06:10.102Z,13.40
2024-03-25T14:08:17.859Z,9.10
2024-03-25T14:10:25.573Z,6.60
2024-03-25T14:12:33.126Z,5.10
2024-03-25T14:14:40.402Z,7.30
2024-03-25T14:16:47.941Z,8.20
2024-03-25T14:18:55.334Z,10.20
2024-03-25T14:21:02.851Z,11.40
2024-03-25T14:23:10.467Z,8.60
2024-03-25T14:25:18.241Z,5.80
2024-03-25T14:27:25.890Z,7.80
2024-03-25T14:29:33.496Z,5.40
2024-03-25T14:31:41.216Z,7.10
2024-03-25T14:33:48.916Z,5.30
2024-03-25T14:35:56.555Z,5.80
2024-03-25T14:38:04.287Z,8.60
2024-03-25T14:40:14.256Z,7.00
2024-03-25T14:42:21.768Z,8.30
2024-03-25T14:44:29.480Z,7.20
2024-03-25T14:46:37.136Z,9.00
2024-03-25T14:48:44.797Z,12.10
2024-03-25T14:50:52.168Z,10.20
2024-03-25T14:52:59.599Z,7.10
2024-03-25T14:55:11.810Z,7.60
2024-03-25T14:57:19.482Z,4.30
2024-03-25T14:59:27.113Z,4.70
2024-03-25T15:01:37.407Z,4.50
2024-03-25T15:03:46.174Z,4.80
2024-03-25T15:05:53.928Z,6.50
2024-03-25T15:08:02.035Z,5.40
2024-03-25T15:10:11.700Z,6.70
2024-03-25T15:12:19.309Z,3.90
2024-03-25T15:14:30.273Z,9.00
2024-03-25T15:16:38.046Z,9.30
2024-03-25T15:18:45.582Z,7.70
2024-03-25T15:21:03.037Z,8.00
2024-03-25T15:23:10.566Z,10.90
2024-03-25T15:25:18.359Z,10.40
2024-03-25T15:27:26.173Z,9.10
2024-03-25T15:29:34.159Z,11.10
2024-03-25T15:31:41.766Z,9.10
2024-03-25T15:33:49.372Z,9.00
2024-03-25T15:35:56.994Z,15.10
2024-03-25T15:38:05.294Z,18.30
2024-03-25T15:40:17.120Z,12.70
2024-03-25T15:44:31.033Z,8.50
2024-03-25T15:46:38.642Z,10.10
2024-03-25T15:48:46.263Z,11.60
2024-03-25T15:50:55.410Z,13.00
2024-03-25T15:53:02.996Z,12.80
2024-03-25T15:55:11.433Z,15.90
2024-03-25T15:57:19.074Z,34.70
2024-03-25T15:59:27.255Z,20.90
2024-03-25T16:01:35.204Z,12.30
2024-03-25T16:03:42.819Z,13.10
2024-03-25T16:05:50.506Z,12.00
2024-03-25T16:07:58.034Z,26.00
2024-03-25T16:10:05.777Z,30.30
2024-03-25T16:12:13.129Z,36.30
2024-03-25T16:14:21.827Z,34.80
2024-03-25T16:16:29.987Z,32.00
2024-03-25T16:18:38.294Z,22.40
2024-03-25T16:20:45.921Z,18.30
2024-03-25T16:22:53.884Z,19.50
2024-03-25T16:25:02.056Z,20.80
2024-03-25T16:27:09.450Z,13.50
2024-03-25T16:29:17.182Z,9.10
2024-03-25T16:31:24.926Z,8.70
2024-03-25T16:33:32.700Z,11.80
2024-03-25T16:35:40.216Z,13.20
2024-03-25T16:37:47.916Z,12.00
2024-03-25T16:42:03.453Z,8.40
2024-03-25T16:44:11.121Z,9.10
2024-03-25T16:46:18.437Z,10.10
2024-03-25T16:48:26.282Z,10.20
2024-03-25T16:50:34.561Z,9.30
2024-03-25T16:52:42.233Z,11.40
2024-03-25T16:54:49.917Z,11.20
2024-03-25T16:56:57.383Z,9.30
2024-03-25T16:59:05.138Z,12.30
2024-03-25T17:01:12.517Z,8.80
2024-03-25T17:03:20.415Z,10.40
2024-03-25T17:05:28.241Z,10.90
2024-03-25T17:07:35.791Z,10.80
2024-03-25T17:09:43.606Z,10.30
2024-03-25T17:11:53.564Z,11.80
2024-03-25T17:14:01.263Z,11.80
2024-03-25T17:16:09.294Z,12.70
2024-03-25T17:18:16.901Z,10.70
2024-03-25T17:20:24.521Z,12.60
2024-03-25T17:22:32.658Z,11.00
2024-03-25T17:24:44.131Z,14.10
2024-03-25T17:26:52.061Z,14.60
2024-03-25T17:28:59.532Z,15.20
2024-03-25T17:31:08.341Z,21.10
2024-03-25T17:33:16.945Z,30.80
2024-03-25T17:35:24.646Z,27.00
2024-03-25T17:37:32.251Z,27.60
2024-03-25T17:39:39.847Z,22.50
2024-03-25T17:41:47.920Z,28.90
2024-03-25T17:43:55.276Z,34.30
2024-03-25T17:46:05.437Z,27.30
2024-03-25T17:48:12.942Z,22.70
2024-03-25T17:50:21.890Z,23.00
2024-03-25T17:52:29.494Z,19.90
2024-03-25T17:54:36.933Z,13.80
2024-03-25T17:56:45.838Z,10.40
2024-03-25T17:58:53.371Z,13.20
2024-03-25T18:01:00.863Z,14.10
2024-03-25T18:03:08.403Z,14.30
2024-03-25T18:05:16.634Z,17.10
2024-03-25T18:07:24.108Z,12.30
2024-03-25T18:09:31.919Z,14.20
2024-03-25T18:11:39.457Z,14.20
2024-03-25T18:13:47.041Z,14.30
2024-03-25T18:15:55.811Z,14.20
2024-03-25T18:18:03.370Z,14.00
2024-03-25T18:20:12.970Z,15.60
2024-03-25T18:22:20.478Z,17.60
2024-03-25T18:24:36.465Z,17.20
2024-03-25T18:26:45.991Z,18.30
2024-03-25T18:28:53.637Z,18.10
2024-03-25T18:31:02.027Z,17.40
2024-03-25T18:33:09.849Z,18.30
2024-03-25T18:35:17.769Z,19.60
2024-03-25T18:37:25.160Z,22.80
2024-03-25T18:39:34.853Z,27.50
2024-03-25T18:41:42.368Z,22.70
2024-03-25T18:43:50.040Z,22.00
2024-03-25T18:45:57.537Z,23.80
2024-03-25T18:48:05.171Z,22.30
2024-03-25T18:50:13.489Z,22.90
2024-03-25T18:52:20.973Z,19.80
2024-03-25T18:54:28.602Z,21.80
2024-03-25T18:56:36.307Z,20.30
2024-03-25T18:58:45.194Z,21.00
2024-03-25T19:00:52.726Z,22.70
2024-03-25T19:03:00.412Z,24.40
2024-03-25T19:05:08.658Z,27.20
2024-03-25T19:07:16.219Z,29.40
2024-03-25T19:09:23.633Z,29.10
2024-03-25T19:11:31.105Z,38.30
2024-03-25T19:13:38.536Z,45.70
2024-03-25T19:15:46.072Z,45.90
2024-03-25T19:17:53.530Z,46.10
2024-03-25T19:20:01.234Z,41.80
2024-03-25T19:22:09.152Z,35.30
2024-03-25T19:24:16.725Z,32.80
2024-03-25T19:26:24.586Z,30.10
2024-03-25T19:28:32.080Z,30.50
2024-03-25T19:30:39.557Z,30.40
2024-03-25T19:32:47.224Z,28.10
2024-03-25T19:34:54.933Z,29.10
2024-03-25T19:37:02.512Z,40.20
2024-03-25T19:39:10.006Z,32.30
2024-03-25T19:41:17.803Z,33.30
2024-03-25T19:43:26.261Z,31.40
2024-03-25T19:45:34.494Z,29.30
2024-03-25T19:47:42.611Z,29.90
2024-03-25T19:49:50.330Z,28.80
2024-03-25T19:51:57.698Z,29.00
2024-03-25T19:54:05.446Z,33.10
2024-03-25T19:56:13.037Z,33.10
2024-03-25T19:58:20.592Z,35.90
2024-03-25T20:00:28.103Z,41.50
2024-03-25T20:02:35.539Z,38.40
2024-03-25T20:04:43.421Z,33.00
2024-03-25T20:06:50.993Z,29.80
2024-03-25T20:08:58.701Z,29.70
2024-03-25T20:11:06.338Z,30.20
2024-03-25T20:13:13.760Z,30.70
2024-03-25T20:15:21.331Z,31.00
2024-03-25T20:17:29.716Z,30.90
2024-03-25T20:19:37.263Z,34.50
2024-03-25T20:21:45.450Z,31.00
2024-03-25T20:23:52.995Z,31.60
2024-03-25T20:26:00.506Z,30.60
2024-03-25T20:28:08.620Z,34.10
2024-03-25T20:30:16.705Z,38.90
2024-03-25T20:32:24.268Z,35.80
2024-03-25T20:34:31.704Z,36.50
2024-03-25T20:36:39.213Z,32.00
2024-03-25T20:38:46.610Z,31.60
2024-03-25T20:40:53.983Z,36.50
2024-03-25T20:43:01.372Z,31.60
2024-03-25T20:45:13.311Z,35.40
2024-03-25T20:49:26.958Z,41.50
2024-03-25T20:51:34.296Z,35.70
2024-03-25T20:53:41.934Z,33.50
2024-03-25T20:55:49.278Z,31.70
2024-03-25T20:57:56.820Z,34.60
2024-03-25T21:00:06.256Z,33.30
2024-03-25T21:02:13.798Z,37.30
2024-03-25T21:04:21.224Z,35.70
2024-03-25T21:06:28.520Z,36.80
2024-03-25T21:08:35.988Z,38.70
2024-03-25T21:10:43.669Z,32.50
2024-03-25T21:12:51.195Z,33.90
2024-03-25T21:14:58.897Z,35.70
2024-03-25T21:17:07.497Z,38.70
2024-03-25T21:19:15.099Z,35.80
2024-03-25T21:21:22.600Z,34.90
2024-03-25T21:23:30.070Z,34.30
2024-03-25T21:25:37.645Z,37.50
2024-03-25T21:27:45.267Z,33.70
2024-03-25T21:29:52.733Z,35.20
2024-03-25T21:32:00.289Z,39.40
2024-03-25T21:34:07.933Z,36.20
2024-03-25T21:36:15.730Z,36.80
2024-03-25T21:38:23.528Z,35.60
2024-03-25T21:40:30.958Z,40.20
2024-03-25T21:42:38.297Z,36.00
2024-03-25T21:44:45.590Z,40.40
2024-03-25T21:46:53.077Z,35.90
2024-03-25T21:49:00.506Z,38.10
2024-03-25T21:51:08.382Z,39.40
2024-03-25T21:53:15.857Z,37.60
2024-03-25T21:55:25.951Z,63.10
2024-03-25T21:57:35.066Z,50.20
2024-03-25T21:59:42.803Z,53.60
2024-03-25T22:01:50.310Z,56.60
2024-03-25T22:03:59.757Z,53.70
2024-03-25T22:06:07.866Z,56.20
2024-03-25T22:08:15.259Z,58.80
2024-03-25T22:10:22.908Z,52.50
2024-03-25T22:12:34.795Z,52.10
2024-03-25T22:14:43.027Z,44.00
2024-03-25T22:16:50.455Z,47.10
2024-03-25T22:18:58.090Z,48.30
2024-03-25T22:21:08.293Z,46.10
2024-03-25T22:23:15.907Z,47.70
2024-03-25T22:25:23.713Z,51.00
2024-03-25T22:27:31.060Z,41.90
2024-03-25T22:29:38.565Z,50.90
2024-03-25T22:31:45.940Z,53.10
2024-03-25T22:33:53.369Z,49.20
2024-03-25T22:36:02.998Z,47.50
2024-03-25T22:38:10.526Z,46.10
2024-03-25T22:40:18.457Z,47.30
2024-03-25T22:42:26.076Z,48.30
2024-03-25T22:44:33.394Z,53.00
2024-03-25T22:46:40.926Z,47.80
2024-03-25T22:48:48.364Z,55.40
2024-03-25T22:50:59.891Z,47.30
2024-03-25T22:53:07.430Z,51.00
2024-03-25T22:55:14.833Z,50.40
2024-03-25T22:57:22.412Z,42.50
2024-03-25T22:59:29.701Z,44.70
2024-03-25T23:01:37.153Z,40.60
2024-03-25T23:03:44.666Z,36.80
2024-03-25T23:05:57.526Z,40.10
2024-03-25T23:08:04.855Z,41.30
2024-03-25T23:10:12.900Z,43.40
2024-03-25T23:12:20.713Z,43.10
2024-03-25T23:14:28.245Z,38.90
2024-03-25T23:16:35.869Z,38.70
2024-03-25T23:18:43.459Z,38.60
2024-03-25T23:20:52.302Z,38.80
2024-03-25T23:22:59.687Z,36.00
2024-03-25T23:25:08.320Z,36.90
2024-03-25T23:27:15.722Z,37.30
2024-03-25T23:29:24.325Z,39.90
2024-03-25T23:31:32.898Z,37.70
2024-03-25T23:33:41.944Z,39.50
2024-03-25T23:35:49.697Z,40.30
2024-03-25T23:37:57.366Z,31.30
2024-03-25T23:40:05.409Z,38.90
2024-03-25T23:42:13.655Z,38.40
2024-03-25T23:44:21.115Z,36.70
2024-03-25T23:46:28.529Z,36.30
2024-03-25T23:48:36.137Z,36.90
2024-03-25T23:50:43.402Z,35.00
2024-03-25T23:52:51.473Z,33.40
2024-03-25T23:54:59.058Z,34.80
2024-03-25T23:57:10.584Z,34.60
2024-03-25T23:59:18.116Z,33.50
